createdAt,value
2022-09-22T00:01:43.863Z,49.65
2022-09-22T00:04:17.074Z,49.68
2022-09-22T00:06:51.425Z,49.63
2022-09-22T00:09:23.777Z,49.76
2022-09-22T00:11:55.946Z,49.65
2022-09-22T00:14:27.960Z,49.71
2022-09-22T00:17:01.210Z,49.54
2022-09-22T00:19:36.103Z,49.41
2022-09-22T00:22:07.690Z,49.33
2022-09-22T00:24:37.533Z,49.50
2022-09-22T00:27:07.294Z,49.49
2022-09-22T00:29:37.117Z,49.39
2022-09-22T00:32:07.885Z,49.28
2022-09-22T00:34:40.846Z,49.38
2022-09-22T00:37:10.886Z,49.38
2022-09-22T00:39:40.988Z,49.73
2022-09-22T00:42:13.027Z,49.56
2022-09-22T00:44:44.092Z,49.70
2022-09-22T00:47:35.882Z,49.83
2022-09-22T00:50:14.129Z,49.80
2022-09-22T00:52:49.162Z,49.74
2022-09-22T00:55:23.909Z,49.76
2022-09-22T00:57:56.445Z,49.50
2022-09-22T01:00:26.768Z,49.49
2022-09-22T01:03:02.042Z,49.67
2022-09-22T01:05:36.589Z,49.89
2022-09-22T01:08:06.601Z,49.76
2022-09-22T01:10:39.332Z,49.91
2022-09-22T01:13:21.360Z,49.62
2022-09-22T01:16:04.886Z,49.82
2022-09-22T01:18:49.112Z,49.92
2022-09-22T01:21:32.466Z,49.80
2022-09-22T01:24:47.516Z,49.82
2022-09-22T01:28:04.706Z,49.74
2022-09-22T01:30:41.651Z,49.68
2022-09-22T01:33:35.228Z,49.68
2022-09-22T01:36:17.085Z,49.67
2022-09-22T01:38:58.747Z,49.83
2022-09-22T01:41:46.616Z,49.97
2022-09-22T01:44:21.725Z,49.95
2022-09-22T01:46:59.169Z,50.16
2022-09-22T01:49:31.154Z,50.30
2022-09-22T01:52:05.629Z,50.28
2022-09-22T01:54:40.302Z,50.54
2022-09-22T01:57:17.284Z,50.24
2022-09-22T01:59:52.271Z,50.37
2022-09-22T02:02:29.425Z,50.39
2022-09-22T02:05:05.690Z,50.33
2022-09-22T02:07:38.236Z,50.21
2022-09-22T02:10:12.890Z,50.19
2022-09-22T02:12:43.015Z,49.98
2022-09-22T02:15:28.341Z,50.12
2022-09-22T02:18:05.816Z,50.08
2022-09-22T02:20:39.384Z,49.80
2022-09-22T02:23:09.215Z,49.89
2022-09-22T02:25:41.115Z,49.81
2022-09-22T02:28:12.309Z,49.82
2022-09-22T02:30:50.570Z,49.83
2022-09-22T02:33:38.522Z,49.82
2022-09-22T02:36:20.932Z,49.60
2022-09-22T02:38:59.846Z,49.61
2022-09-22T02:41:38.212Z,49.55
2022-09-22T02:44:16.673Z,49.53
2022-09-22T02:46:51.739Z,49.67
2022-09-22T02:49:26.713Z,49.75
2022-09-22T02:51:57.351Z,49.70
2022-09-22T02:54:27.392Z,49.73
2022-09-22T02:56:57.604Z,49.75
2022-09-22T02:59:27.818Z,49.48
2022-09-22T03:01:57.730Z,49.53
2022-09-22T03:04:30.624Z,49.54
2022-09-22T03:07:00.418Z,49.68
2022-09-22T03:09:30.236Z,50.13
2022-09-22T03:11:59.978Z,50.37
2022-09-22T03:14:29.816Z,49.79
2022-09-22T03:17:02.593Z,49.53
2022-09-22T03:19:35.124Z,49.70
2022-09-22T03:22:05.167Z,49.66
2022-09-22T03:24:35.316Z,49.51
2022-09-22T03:27:05.292Z,49.72
2022-09-22T03:29:35.179Z,49.59
2022-09-22T03:32:05.702Z,49.57
2022-09-22T03:34:38.376Z,49.72
2022-09-22T03:37:08.406Z,49.52
2022-09-22T03:39:38.241Z,49.66
2022-09-22T03:42:08.937Z,49.41
2022-09-22T03:44:38.991Z,49.36
2022-09-22T03:47:09.516Z,49.58
2022-09-22T03:49:42.320Z,49.71
2022-09-22T03:52:12.307Z,49.30
2022-09-22T03:54:42.077Z,49.11
2022-09-22T03:57:11.834Z,48.96
2022-09-22T03:59:41.666Z,49.00
2022-09-22T04:02:11.579Z,49.32
2022-09-22T04:04:44.452Z,49.45
2022-09-22T04:07:14.448Z,49.64
2022-09-22T04:09:44.752Z,49.55
2022-09-22T04:12:14.627Z,49.19
2022-09-22T04:14:44.478Z,49.07
2022-09-22T04:17:14.591Z,49.11
2022-09-22T04:19:47.005Z,49.40
2022-09-22T04:22:16.992Z,48.96
2022-09-22T04:24:46.770Z,49.05
2022-09-22T04:27:20.908Z,49.16
2022-09-22T04:29:51.624Z,49.02
2022-09-22T04:32:21.553Z,49.21
2022-09-22T04:34:54.058Z,49.37
2022-09-22T04:37:23.876Z,49.62
2022-09-22T04:39:54.728Z,49.46
2022-09-22T04:42:25.988Z,49.14
2022-09-22T04:44:57.215Z,49.15
2022-09-22T04:47:27.463Z,49.04
2022-09-22T04:50:00.234Z,48.81
2022-09-22T04:52:30.263Z,48.84
2022-09-22T04:55:00.473Z,49.33
2022-09-22T04:57:32.803Z,49.17
2022-09-22T05:00:02.551Z,49.47
2022-09-22T05:02:32.441Z,49.34
2022-09-22T05:05:05.654Z,49.65
2022-09-22T05:07:35.623Z,49.12
2022-09-22T05:10:06.123Z,48.84
2022-09-22T05:12:37.734Z,48.77
2022-09-22T05:15:12.468Z,48.80
2022-09-22T05:17:49.035Z,48.79
2022-09-22T05:20:22.387Z,48.51
2022-09-22T05:22:52.864Z,48.44
2022-09-22T05:25:22.781Z,48.31
2022-09-22T05:27:54.939Z,48.31
2022-09-22T05:30:27.619Z,48.18
2022-09-22T05:32:57.586Z,48.07
2022-09-22T05:35:35.828Z,47.76
2022-09-22T05:38:07.046Z,47.65
2022-09-22T05:40:36.934Z,47.72
2022-09-22T05:43:07.180Z,47.79
2022-09-22T05:45:37.449Z,47.61
2022-09-22T05:48:07.616Z,47.34
2022-09-22T05:50:40.141Z,47.04
2022-09-22T05:53:12.312Z,46.76
2022-09-22T05:55:43.373Z,46.92
2022-09-22T05:58:14.652Z,46.84
2022-09-22T06:00:45.329Z,46.78
2022-09-22T06:03:15.676Z,46.70
2022-09-22T06:05:49.900Z,46.77
2022-09-22T06:08:22.622Z,46.35
2022-09-22T06:10:56.345Z,46.05
2022-09-22T06:13:30.162Z,46.03
2022-09-22T06:16:00.156Z,45.49
2022-09-22T06:18:31.743Z,45.36
2022-09-22T06:21:09.707Z,45.34
2022-09-22T06:23:42.849Z,45.08
2022-09-22T06:26:13.980Z,44.84
2022-09-22T06:28:43.844Z,44.69
2022-09-22T06:31:15.279Z,44.12
2022-09-22T06:33:48.662Z,43.97
2022-09-22T06:36:30.429Z,44.56
2022-09-22T06:39:01.208Z,43.98
2022-09-22T06:41:33.173Z,44.09
2022-09-22T06:44:07.047Z,43.22
2022-09-22T06:46:40.500Z,43.50
2022-09-22T06:49:11.789Z,43.56
2022-09-22T06:51:44.214Z,44.17
2022-09-22T06:54:14.448Z,43.26
2022-09-22T06:56:45.468Z,43.08
2022-09-22T06:59:17.297Z,43.33
2022-09-22T07:01:48.804Z,43.19
2022-09-22T07:04:19.610Z,43.06
2022-09-22T07:06:57.032Z,42.49
2022-09-22T07:09:31.125Z,42.18
2022-09-22T07:12:08.037Z,42.44
2022-09-22T07:14:37.993Z,42.93
2022-09-22T07:17:08.115Z,42.58
2022-09-22T07:19:37.900Z,42.35
2022-09-22T07:22:10.780Z,42.08
2022-09-22T07:24:41.763Z,41.50
2022-09-22T07:27:13.149Z,41.36
2022-09-22T07:29:46.439Z,41.59
2022-09-22T07:32:17.813Z,40.38
2022-09-22T07:34:53.528Z,40.67
2022-09-22T07:37:30.262Z,40.64
2022-09-22T07:40:01.068Z,39.90
2022-09-22T07:42:31.021Z,39.36
2022-09-22T07:45:15.889Z,39.30
2022-09-22T07:48:02.161Z,39.58
2022-09-22T07:50:32.509Z,40.12
2022-09-22T07:53:11.395Z,39.62
2022-09-22T07:55:41.798Z,40.23
2022-09-22T07:58:21.804Z,40.06
2022-09-22T08:01:05.293Z,38.84
2022-09-22T08:03:38.068Z,38.42
2022-09-22T08:06:11.827Z,39.01
2022-09-22T08:08:53.764Z,38.69
2022-09-22T08:11:26.758Z,38.24
2022-09-22T08:14:00.073Z,36.73
2022-09-22T08:16:32.036Z,37.09
2022-09-22T08:19:10.606Z,38.24
2022-09-22T08:21:48.397Z,37.74
2022-09-22T08:24:23.717Z,37.42
2022-09-22T08:26:56.453Z,37.43
2022-09-22T08:29:28.019Z,37.32
2022-09-22T08:31:58.214Z,37.51
2022-09-22T08:34:28.189Z,37.17
2022-09-22T08:37:00.755Z,37.09
2022-09-22T08:39:35.825Z,37.47
2022-09-22T08:42:13.925Z,38.14
2022-09-22T08:44:53.674Z,38.74
2022-09-22T08:47:41.162Z,38.93
2022-09-22T08:50:35.992Z,38.79
2022-09-22T08:53:10.210Z,38.32
2022-09-22T08:55:46.255Z,38.76
2022-09-22T08:58:31.629Z,38.76
2022-09-22T09:01:14.671Z,38.73
2022-09-22T09:03:58.984Z,38.76
2022-09-22T09:06:39.362Z,38.22
2022-09-22T09:09:38.509Z,38.06
2022-09-22T09:12:25.454Z,37.99
2022-09-22T09:15:18.510Z,37.89
2022-09-22T09:17:50.146Z,37.14
2022-09-22T09:20:23.855Z,37.82
2022-09-22T09:22:56.459Z,37.84
2022-09-22T09:25:36.936Z,38.54
2022-09-22T09:28:14.849Z,38.21
2022-09-22T09:30:51.330Z,37.95
2022-09-22T09:33:33.810Z,38.13
2022-09-22T09:36:04.603Z,37.86
2022-09-22T09:38:37.820Z,38.59
2022-09-22T09:41:17.433Z,38.30
2022-09-22T09:43:53.222Z,39.04
2022-09-22T09:46:39.251Z,39.06
2022-09-22T09:49:14.947Z,38.07
2022-09-22T09:51:48.075Z,37.96
2022-09-22T09:54:19.780Z,37.99
2022-09-22T09:57:06.526Z,38.03
2022-09-22T09:59:52.588Z,37.98
2022-09-22T10:02:25.452Z,38.79
2022-09-22T10:04:58.626Z,38.00
2022-09-22T10:10:36.558Z,37.80
2022-09-22T10:13:25.188Z,37.53
2022-09-22T10:16:23.859Z,38.00
2022-09-22T10:19:05.029Z,37.20
2022-09-22T10:21:37.738Z,36.92
2022-09-22T10:24:26.461Z,36.89
2022-09-22T10:27:00.403Z,36.97
2022-09-22T10:29:33.508Z,36.14
2022-09-22T10:32:16.900Z,36.22
2022-09-22T10:34:48.867Z,36.36
2022-09-22T10:37:20.600Z,35.15
2022-09-22T10:39:52.694Z,34.11
2022-09-22T10:42:32.752Z,32.65
2022-09-22T10:45:05.784Z,31.96
2022-09-22T10:47:51.415Z,30.64
2022-09-22T10:50:43.144Z,29.64
2022-09-22T10:53:41.606Z,29.62
2022-09-22T10:56:21.929Z,28.49
2022-09-22T10:59:21.113Z,27.57
2022-09-22T11:02:05.649Z,26.35
2022-09-22T11:04:50.371Z,25.94
2022-09-22T11:07:48.409Z,24.77
2022-09-22T11:10:40.786Z,24.45
2022-09-22T11:13:22.880Z,24.66
2022-09-22T11:16:17.695Z,24.81
2022-09-22T11:19:09.547Z,26.01
2022-09-22T11:21:58.449Z,27.12
2022-09-22T11:24:49.054Z,26.22
2022-09-22T11:27:28.378Z,24.01
2022-09-22T11:30:15.002Z,22.69
2022-09-22T11:33:02.347Z,21.20
2022-09-22T11:35:45.731Z,19.50
2022-09-22T11:38:51.454Z,18.79
2022-09-22T11:41:32.576Z,18.16
2022-09-22T11:44:33.535Z,19.30
2022-09-22T11:47:27.558Z,20.91
2022-09-22T11:50:21.707Z,21.00
2022-09-22T11:53:09.570Z,19.42
2022-09-22T11:55:50.216Z,17.40
2022-09-22T11:58:23.251Z,16.71
2022-09-22T12:00:57.955Z,17.42
2022-09-22T12:03:32.172Z,18.03
2022-09-22T12:06:07.315Z,17.61
2022-09-22T12:08:43.202Z,18.31
2022-09-22T12:11:20.555Z,20.73
2022-09-22T12:13:53.472Z,21.90
2022-09-22T12:16:27.759Z,23.04
2022-09-22T12:19:02.979Z,25.00
2022-09-22T12:21:45.922Z,25.29
2022-09-22T12:24:16.038Z,26.03
2022-09-22T12:26:49.985Z,26.21
2022-09-22T12:29:29.885Z,26.74
2022-09-22T12:32:02.181Z,27.67
2022-09-22T12:34:35.629Z,28.25
2022-09-22T12:37:14.909Z,29.09
2022-09-22T12:39:48.866Z,29.66
2022-09-22T12:42:27.404Z,29.25
2022-09-22T12:45:01.466Z,29.75
2022-09-22T12:47:36.195Z,28.97
2022-09-22T12:50:09.586Z,29.04
2022-09-22T12:53:00.027Z,30.24
2022-09-22T12:55:38.648Z,30.55
2022-09-22T12:58:38.378Z,31.32
2022-09-22T13:01:40.656Z,30.99
2022-09-22T13:04:21.100Z,31.50
2022-09-22T13:06:59.783Z,30.96
2022-09-22T13:09:32.245Z,30.36
2022-09-22T13:12:31.178Z,29.05
2022-09-22T13:15:17.611Z,31.85
2022-09-22T13:17:49.650Z,30.92
2022-09-22T13:20:26.745Z,31.10
2022-09-22T13:22:56.769Z,29.81
2022-09-22T13:25:31.274Z,29.76
2022-09-22T13:28:14.538Z,28.78
2022-09-22T13:30:46.018Z,28.23
2022-09-22T13:33:23.726Z,28.77
2022-09-22T13:36:06.660Z,29.14
2022-09-22T13:38:39.957Z,29.39
2022-09-22T13:41:15.014Z,28.69
2022-09-22T13:43:47.743Z,29.39
2022-09-22T13:46:24.691Z,28.60
2022-09-22T13:48:57.072Z,28.76
2022-09-22T13:51:29.701Z,29.66
2022-09-22T13:54:00.359Z,28.85
2022-09-22T13:56:30.938Z,29.80
2022-09-22T13:59:03.044Z,29.65
2022-09-22T14:01:34.186Z,28.18
2022-09-22T14:04:04.636Z,27.73
2022-09-22T14:06:40.360Z,28.09
2022-09-22T14:09:11.669Z,27.85
2022-09-22T14:11:41.711Z,28.50
2022-09-22T14:14:25.170Z,28.70
2022-09-22T14:16:59.130Z,28.13
2022-09-22T14:19:35.891Z,28.59
2022-09-22T14:22:17.033Z,27.38
2022-09-22T14:24:52.256Z,26.77
2022-09-22T14:27:26.650Z,26.67
2022-09-22T14:29:58.534Z,27.16
2022-09-22T14:32:39.798Z,27.58
2022-09-22T14:35:12.321Z,27.59
2022-09-22T14:37:46.689Z,27.01
2022-09-22T14:40:19.641Z,27.00
2022-09-22T14:43:02.107Z,27.72
2022-09-22T14:45:33.108Z,26.10
2022-09-22T14:48:19.012Z,27.66
2022-09-22T14:50:51.587Z,28.69
2022-09-22T14:53:29.171Z,28.42
2022-09-22T14:56:05.995Z,28.24
2022-09-22T14:58:40.871Z,28.26
2022-09-22T15:01:41.239Z,27.59
2022-09-22T15:04:18.283Z,27.93
2022-09-22T15:06:49.074Z,28.01
2022-09-22T15:09:27.565Z,28.94
2022-09-22T15:12:00.658Z,28.97
2022-09-22T15:14:44.527Z,29.54
2022-09-22T15:17:55.001Z,29.37
2022-09-22T15:20:27.319Z,29.61
2022-09-22T15:22:59.225Z,28.82
2022-09-22T15:25:31.968Z,29.01
2022-09-22T15:28:01.858Z,29.01
2022-09-22T15:30:32.332Z,29.54
2022-09-22T15:33:03.955Z,29.43
2022-09-22T15:35:38.092Z,29.41
2022-09-22T15:38:17.518Z,29.45
2022-09-22T15:40:50.979Z,29.79
2022-09-22T15:43:23.742Z,29.65
2022-09-22T15:45:58.023Z,29.89
2022-09-22T15:48:31.796Z,30.41
2022-09-22T15:51:05.518Z,30.27
2022-09-22T15:53:37.790Z,30.04
2022-09-22T15:56:18.581Z,30.52
2022-09-22T15:58:49.519Z,30.87
2022-09-22T16:01:22.416Z,30.40
2022-09-22T16:03:52.430Z,30.92
2022-09-22T16:06:22.753Z,31.51
2022-09-22T16:08:58.614Z,31.60
2022-09-22T16:11:31.332Z,31.45
2022-09-22T16:14:03.823Z,32.07
2022-09-22T16:16:35.549Z,32.25
2022-09-22T16:19:22.670Z,33.59
2022-09-22T16:21:59.955Z,33.71
2022-09-22T16:24:30.242Z,33.89
2022-09-22T16:27:07.512Z,34.33
2022-09-22T16:29:38.590Z,33.31
2022-09-22T16:32:09.260Z,34.27
2022-09-22T16:34:39.490Z,34.84
2022-09-22T16:37:10.724Z,36.27
2022-09-22T16:39:40.798Z,36.17
2022-09-22T16:42:15.325Z,36.52
2022-09-22T16:44:45.624Z,37.07
2022-09-22T16:47:18.961Z,36.97
2022-09-22T16:49:51.626Z,37.46
2022-09-22T16:52:23.423Z,38.16
2022-09-22T16:54:53.829Z,37.72
2022-09-22T16:57:30.208Z,38.62
2022-09-22T17:00:01.548Z,36.82
2022-09-22T17:02:31.562Z,37.49
2022-09-22T17:05:01.476Z,38.41
2022-09-22T17:07:31.266Z,38.49
2022-09-22T17:10:01.381Z,38.03
2022-09-22T17:12:34.032Z,38.36
2022-09-22T17:15:04.579Z,38.64
2022-09-22T17:17:36.017Z,39.18
2022-09-22T17:20:06.865Z,39.39
2022-09-22T17:22:37.176Z,39.35
2022-09-22T17:25:11.011Z,39.92
2022-09-22T17:27:43.385Z,40.15
2022-09-22T17:30:15.679Z,40.08
2022-09-22T17:32:48.505Z,40.35
2022-09-22T17:35:18.558Z,40.32
2022-09-22T17:37:49.078Z,40.97
2022-09-22T17:40:19.918Z,40.99
2022-09-22T17:42:53.327Z,40.68
2022-09-22T17:45:23.207Z,40.90
2022-09-22T17:48:05.816Z,41.05
2022-09-22T17:50:48.645Z,40.98
2022-09-22T17:53:31.274Z,41.52
2022-09-22T17:56:05.212Z,41.30
2022-09-22T17:58:41.366Z,41.30
2022-09-22T18:01:11.459Z,41.49
2022-09-22T18:03:43.044Z,41.95
2022-09-22T18:06:19.255Z,42.25
2022-09-22T18:08:49.181Z,41.99
2022-09-22T18:11:19.079Z,41.90
2022-09-22T18:13:52.060Z,41.73
2022-09-22T18:16:29.365Z,42.09
2022-09-22T18:18:59.270Z,41.91
2022-09-22T18:21:29.919Z,41.78
2022-09-22T18:24:00.160Z,41.75
2022-09-22T18:26:31.823Z,41.89
2022-09-22T18:29:07.581Z,41.88
2022-09-22T18:31:38.284Z,41.80
2022-09-22T18:34:09.688Z,41.55
2022-09-22T18:36:41.426Z,40.65
2022-09-22T18:39:11.969Z,40.59
2022-09-22T18:41:42.374Z,41.12
2022-09-22T18:44:15.399Z,40.84
2022-09-22T18:46:48.702Z,41.26
2022-09-22T18:49:19.150Z,41.21
2022-09-22T18:51:53.370Z,41.38
2022-09-22T18:54:24.148Z,41.42
2022-09-22T18:56:55.597Z,41.44
2022-09-22T18:59:30.145Z,41.43
2022-09-22T19:02:10.793Z,41.44
2022-09-22T19:04:42.182Z,41.83
2022-09-22T19:07:24.668Z,42.21
2022-09-22T19:09:57.847Z,42.29
2022-09-22T19:12:30.680Z,41.91
2022-09-22T19:15:03.417Z,41.88
2022-09-22T19:17:33.753Z,41.91
2022-09-22T19:20:04.289Z,41.84
2022-09-22T19:22:37.159Z,42.26
2022-09-22T19:25:08.249Z,42.37
2022-09-22T19:27:39.703Z,42.03
2022-09-22T19:30:14.311Z,42.49
2022-09-22T19:32:46.129Z,42.28
2022-09-22T19:35:16.910Z,42.38
2022-09-22T19:37:47.184Z,42.40
2022-09-22T19:40:19.095Z,42.83
2022-09-22T19:42:49.906Z,42.85
2022-09-22T19:45:23.925Z,42.46
2022-09-22T19:47:56.376Z,42.88
2022-09-22T19:50:26.656Z,42.52
2022-09-22T19:52:56.707Z,42.24
2022-09-22T19:55:26.496Z,42.28
2022-09-22T19:57:56.244Z,42.28
2022-09-22T20:00:29.361Z,42.62
2022-09-22T20:03:00.970Z,42.63
2022-09-22T20:05:37.798Z,42.41
2022-09-22T20:08:15.908Z,42.69
2022-09-22T20:10:47.146Z,42.48
2022-09-22T20:13:29.654Z,42.64
2022-09-22T20:16:07.853Z,42.77
2022-09-22T20:18:41.268Z,42.83
2022-09-22T20:21:16.264Z,42.74
2022-09-22T20:23:46.581Z,42.71
2022-09-22T20:26:16.924Z,42.81
2022-09-22T20:28:47.652Z,42.72
2022-09-22T20:31:20.759Z,42.64
2022-09-22T20:33:50.863Z,42.65
2022-09-22T20:36:20.967Z,42.64
2022-09-22T20:38:51.551Z,42.72
2022-09-22T20:41:25.465Z,42.70
2022-09-22T20:43:56.051Z,42.68
2022-09-22T20:46:28.626Z,42.90
2022-09-22T20:49:08.953Z,42.79
2022-09-22T20:51:41.868Z,42.86
2022-09-22T20:54:12.530Z,42.69
2022-09-22T20:56:43.019Z,42.82
2022-09-22T20:59:16.417Z,42.66
2022-09-22T21:01:49.234Z,43.21
2022-09-22T21:04:19.215Z,43.27
2022-09-22T21:06:49.190Z,43.32
2022-09-22T21:09:31.551Z,43.28
2022-09-22T21:12:01.619Z,42.99
2022-09-22T21:14:33.805Z,43.32
2022-09-22T21:17:07.008Z,43.34
2022-09-22T21:19:37.177Z,43.21
2022-09-22T21:22:07.633Z,43.53
2022-09-22T21:24:37.904Z,43.73
2022-09-22T21:27:08.618Z,43.46
2022-09-22T21:29:38.657Z,43.24
2022-09-22T21:32:12.490Z,43.12
2022-09-22T21:34:45.413Z,43.24
2022-09-22T21:37:15.663Z,43.13
2022-09-22T21:39:45.568Z,42.88
2022-09-22T21:42:15.852Z,42.97
2022-09-22T21:44:47.105Z,42.95
2022-09-22T21:47:20.336Z,42.95
2022-09-22T21:49:50.673Z,42.57
2022-09-22T21:52:20.941Z,42.98
2022-09-22T21:54:50.740Z,43.04
2022-09-22T21:57:20.776Z,43.14
2022-09-22T21:59:53.769Z,42.84
2022-09-22T22:02:48.640Z,42.85
2022-09-22T22:05:18.714Z,42.86
2022-09-22T22:07:48.710Z,42.72
2022-09-22T22:10:19.290Z,42.68
2022-09-22T22:12:49.466Z,42.60
2022-09-22T22:15:20.028Z,42.63
2022-09-22T22:17:52.384Z,42.85
2022-09-22T22:20:22.192Z,43.17
2022-09-22T22:22:52.083Z,42.94
2022-09-22T22:25:22.192Z,42.97
2022-09-22T22:27:52.144Z,42.94
2022-09-22T22:30:22.053Z,43.12
2022-09-22T22:32:57.101Z,43.14
2022-09-22T22:35:27.305Z,43.27
2022-09-22T22:37:57.696Z,43.24
2022-09-22T22:40:27.530Z,43.17
2022-09-22T22:42:57.760Z,43.10
2022-09-22T22:45:27.733Z,43.20
2022-09-22T22:48:00.436Z,43.67
2022-09-22T22:50:30.751Z,43.27
2022-09-22T22:53:00.876Z,43.62
2022-09-22T22:55:30.987Z,43.73
2022-09-22T22:58:00.871Z,43.49
2022-09-22T23:00:33.234Z,43.40
2022-09-22T23:03:09.526Z,43.26
2022-09-22T23:05:43.097Z,43.41
2022-09-22T23:08:13.415Z,43.50
2022-09-22T23:10:45.975Z,43.56
2022-09-22T23:13:16.463Z,43.53
2022-09-22T23:15:47.956Z,43.59
2022-09-22T23:18:21.124Z,43.68
2022-09-22T23:20:51.702Z,43.36
2022-09-22T23:23:21.655Z,43.54
2022-09-22T23:25:54.341Z,43.38
2022-09-22T23:28:25.396Z,43.72
2022-09-22T23:31:03.025Z,43.81
2022-09-22T23:33:35.661Z,43.82
2022-09-22T23:36:07.294Z,43.72
2022-09-22T23:38:38.209Z,43.84
2022-09-22T23:41:11.572Z,43.82
2022-09-22T23:43:42.351Z,43.83
2022-09-22T23:46:12.450Z,43.73
2022-09-22T23:48:47.597Z,43.65
2022-09-22T23:51:19.675Z,43.41
2022-09-22T23:53:49.653Z,43.46
2022-09-22T23:56:19.754Z,43.35
2022-09-22T23:58:49.783Z,43.58
